createdAt,value
2019-05-10T00:01:10.040Z,72.40
2019-05-10T00:03:59.068Z,66.43
2019-05-10T00:06:48.341Z,73.77
2019-05-10T00:09:18.691Z,67.23
2019-05-10T00:11:51.391Z,69.35
2019-05-10T00:14:23.987Z,67.53
2019-05-10T00:16:56.773Z,66.47
2019-05-10T00:19:27.841Z,68.50
2019-05-10T00:21:58.855Z,55.20
2019-05-10T00:24:29.929Z,69.05
2019-05-10T00:27:01.132Z,61.40
2019-05-10T00:29:32.196Z,62.67
2019-05-10T00:32:03.473Z,55.67
2019-05-10T00:34:34.652Z,58.13
2019-05-10T00:37:06.128Z,58.60
2019-05-10T00:39:37.276Z,62.43
2019-05-10T00:42:08.685Z,58.00
2019-05-10T00:44:39.881Z,53.03
2019-05-10T00:47:11.088Z,57.40
2019-05-10T00:49:42.328Z,61.23
2019-05-10T00:52:13.620Z,57.13
2019-05-10T00:54:44.942Z,55.75
2019-05-10T00:57:16.238Z,55.03
2019-05-10T00:59:47.513Z,63.80
2019-05-10T01:02:18.604Z,53.37
2019-05-10T01:04:49.712Z,51.87
2019-05-10T01:07:20.933Z,54.07
2019-05-10T01:09:52.011Z,51.97
2019-05-10T01:12:23.148Z,62.15
2019-05-10T01:14:53.982Z,59.77
2019-05-10T01:17:24.942Z,56.83
2019-05-10T01:19:57.146Z,51.80
2019-05-10T01:22:28.551Z,54.25
2019-05-10T01:24:59.730Z,54.17
2019-05-10T01:27:30.891Z,51.37
2019-05-10T01:30:02.243Z,55.90
2019-05-10T01:32:33.470Z,52.17
2019-05-10T01:35:07.303Z,64.07
2019-05-10T01:37:38.478Z,56.97
2019-05-10T01:40:09.862Z,59.17
2019-05-10T01:42:40.862Z,57.67
2019-05-10T01:45:12.727Z,49.00
2019-05-10T01:47:43.985Z,52.27
2019-05-10T01:50:15.298Z,44.87
2019-05-10T01:52:46.428Z,47.50
2019-05-10T01:55:17.652Z,49.50
2019-05-10T01:57:48.821Z,47.53
2019-05-10T02:00:20.573Z,40.30
2019-05-10T02:02:51.942Z,45.00
2019-05-10T02:05:23.026Z,39.23
2019-05-10T02:07:54.362Z,41.47
2019-05-10T02:10:25.393Z,44.77
2019-05-10T02:12:57.834Z,44.43
2019-05-10T02:15:29.435Z,43.90
2019-05-10T02:18:00.663Z,43.37
2019-05-10T02:20:31.671Z,45.10
2019-05-10T02:23:03.090Z,51.33
2019-05-10T02:25:34.287Z,55.00
2019-05-10T02:28:05.484Z,49.10
2019-05-10T02:30:36.620Z,56.80
2019-05-10T02:33:07.970Z,48.30
2019-05-10T02:35:39.462Z,51.67
2019-05-10T02:38:10.432Z,57.17
2019-05-10T02:40:41.383Z,47.60
2019-05-10T02:43:12.393Z,54.27
2019-05-10T02:45:43.684Z,53.73
2019-05-10T02:48:15.020Z,58.60
2019-05-10T02:50:46.777Z,56.87
2019-05-10T02:53:18.280Z,47.17
2019-05-10T02:55:52.369Z,47.87
2019-05-10T02:58:23.693Z,51.67
2019-05-10T03:00:58.242Z,46.53
2019-05-10T03:03:32.655Z,44.63
2019-05-10T03:06:07.641Z,49.80
2019-05-10T03:08:51.023Z,45.17
2019-05-10T03:11:22.087Z,57.50
2019-05-10T03:13:54.178Z,55.90
2019-05-10T03:16:25.561Z,64.50
2019-05-10T03:18:57.896Z,58.00
2019-05-10T03:21:33.347Z,53.23
2019-05-10T03:24:04.684Z,63.77
2019-05-10T03:26:50.459Z,46.07
2019-05-10T03:29:10.848Z,48.73
2019-05-10T03:31:42.225Z,40.47
2019-05-10T03:34:13.779Z,39.40
2019-05-10T03:36:45.299Z,36.17
2019-05-10T03:39:16.365Z,37.17
2019-05-10T03:41:47.587Z,33.93
2019-05-10T03:44:18.763Z,39.97
2019-05-10T03:46:49.916Z,32.23
2019-05-10T03:49:21.377Z,33.40
2019-05-10T03:51:53.005Z,29.33
2019-05-10T03:54:24.150Z,29.77
2019-05-10T03:57:12.206Z,33.33
2019-05-10T03:59:28.487Z,29.63
2019-05-10T04:02:01.307Z,36.80
2019-05-10T04:04:32.650Z,33.20
2019-05-10T04:07:03.937Z,33.73
2019-05-10T04:09:35.156Z,33.70
2019-05-10T04:12:06.774Z,31.37
2019-05-10T04:14:37.765Z,30.47
2019-05-10T04:17:08.947Z,34.10
2019-05-10T04:19:40.407Z,35.73
2019-05-10T04:22:11.581Z,32.40
2019-05-10T04:24:42.779Z,29.97
2019-05-10T04:27:30.575Z,34.63
2019-05-10T04:29:46.604Z,34.20
2019-05-10T04:32:17.971Z,35.75
2019-05-10T04:34:49.179Z,34.73
2019-05-10T04:37:20.371Z,34.40
2019-05-10T04:39:51.658Z,35.40
2019-05-10T04:42:22.652Z,42.27
2019-05-10T04:44:54.250Z,35.37
2019-05-10T04:47:25.748Z,38.93
2019-05-10T04:49:57.136Z,36.67
2019-05-10T04:52:28.503Z,35.10
2019-05-10T04:55:00.053Z,41.90
2019-05-10T04:57:48.691Z,37.37
2019-05-10T05:00:05.428Z,39.30
2019-05-10T05:02:36.721Z,42.07
2019-05-10T05:05:09.001Z,38.00
2019-05-10T05:07:40.443Z,36.00
2019-05-10T05:10:11.582Z,37.60
2019-05-10T05:12:42.791Z,39.00
2019-05-10T05:15:14.595Z,36.03
2019-05-10T05:17:45.631Z,32.85
2019-05-10T05:20:16.736Z,37.98
2019-05-10T05:22:47.940Z,36.03
2019-05-10T05:25:21.876Z,41.27
2019-05-10T05:28:06.519Z,36.20
2019-05-10T05:30:24.852Z,34.47
2019-05-10T05:32:57.007Z,33.03
2019-05-10T05:35:28.708Z,34.00
2019-05-10T05:38:00.025Z,32.07
2019-05-10T05:40:31.424Z,31.93
2019-05-10T05:43:08.387Z,30.50
2019-05-10T05:45:35.948Z,28.40
2019-05-10T05:48:07.135Z,30.43
2019-05-10T05:50:38.396Z,30.57
2019-05-10T05:53:10.323Z,29.98
2019-05-10T05:55:41.889Z,29.07
2019-05-10T05:58:25.487Z,29.00
2019-05-10T06:00:46.914Z,30.67
2019-05-10T06:03:27.115Z,29.67
2019-05-10T06:05:50.990Z,32.30
2019-05-10T06:08:24.684Z,31.57
2019-05-10T06:10:57.797Z,33.20
2019-05-10T06:13:30.492Z,33.50
2019-05-10T06:16:06.116Z,34.23
2019-05-10T06:18:33.378Z,32.28
2019-05-10T06:21:04.752Z,31.80
2019-05-10T06:23:36.904Z,33.42
2019-05-10T06:26:21.366Z,31.55
2019-05-10T06:28:58.361Z,33.40
2019-05-10T06:31:13.694Z,33.70
2019-05-10T06:33:46.785Z,29.55
2019-05-10T06:36:19.838Z,30.62
2019-05-10T06:38:51.001Z,25.37
2019-05-10T06:41:22.142Z,24.55
2019-05-10T06:43:54.132Z,21.40
2019-05-10T06:46:29.389Z,27.93
2019-05-10T06:49:07.249Z,23.73
2019-05-10T06:51:31.024Z,22.27
2019-05-10T06:54:02.129Z,18.57
2019-05-10T06:56:33.123Z,15.98
2019-05-10T06:59:12.832Z,16.20
2019-05-10T07:01:38.302Z,17.00
2019-05-10T07:04:10.366Z,17.17
2019-05-10T07:06:41.393Z,19.15
2019-05-10T07:09:12.310Z,17.10
2019-05-10T07:11:43.826Z,17.62
2019-05-10T07:14:15.115Z,15.68
2019-05-10T07:16:46.216Z,11.97
2019-05-10T07:19:17.209Z,11.70
2019-05-10T07:21:51.263Z,13.55
2019-05-10T07:24:24.933Z,19.25
2019-05-10T07:26:56.650Z,18.12
2019-05-10T07:29:29.917Z,17.85
2019-05-10T07:31:59.669Z,17.73
2019-05-10T07:34:30.612Z,15.88
2019-05-10T07:37:02.134Z,16.50
2019-05-10T07:39:33.350Z,14.63
2019-05-10T07:42:07.018Z,19.57
2019-05-10T07:44:41.522Z,17.05
2019-05-10T07:47:12.014Z,17.52
2019-05-10T07:49:43.093Z,17.05
2019-05-10T07:52:14.314Z,16.50
2019-05-10T07:54:47.722Z,16.17
2019-05-10T07:57:18.480Z,16.17
2019-05-10T07:59:51.407Z,12.40
2019-05-10T08:02:22.582Z,12.15
2019-05-10T08:04:53.796Z,18.42
2019-05-10T08:07:25.277Z,12.58
2019-05-10T08:09:56.487Z,15.85
2019-05-10T08:12:28.816Z,13.25
2019-05-10T08:14:59.989Z,13.45
2019-05-10T08:17:35.494Z,12.40
2019-05-10T08:20:09.064Z,14.03
2019-05-10T08:22:44.479Z,16.95
2019-05-10T08:25:15.385Z,12.07
2019-05-10T08:27:50.415Z,11.33
2019-05-10T08:30:42.708Z,15.35
2019-05-10T08:33:14.364Z,9.25
2019-05-10T08:35:46.414Z,9.70
2019-05-10T08:38:18.043Z,12.28
2019-05-10T08:40:49.128Z,14.00
2019-05-10T08:43:21.818Z,10.72
2019-05-10T08:45:53.009Z,14.53
2019-05-10T08:48:23.989Z,8.63
2019-05-10T08:50:57.620Z,8.10
2019-05-10T08:53:28.002Z,11.78
2019-05-10T08:55:59.161Z,8.85
2019-05-10T08:58:32.491Z,5.95
2019-05-10T09:01:16.279Z,8.50
2019-05-10T09:03:36.503Z,8.58
2019-05-10T09:06:11.547Z,8.00
2019-05-10T09:08:42.961Z,10.85
2019-05-10T09:11:16.245Z,6.78
2019-05-10T09:13:46.544Z,11.43
2019-05-10T09:16:17.939Z,10.20
2019-05-10T09:18:51.214Z,7.10
2019-05-10T09:21:22.448Z,8.75
2019-05-10T09:24:01.399Z,12.00
2019-05-10T09:26:26.667Z,12.40
2019-05-10T09:28:57.922Z,9.28
2019-05-10T09:31:29.087Z,9.38
2019-05-10T09:34:02.450Z,10.63
2019-05-10T09:36:36.297Z,11.08
2019-05-10T09:39:09.112Z,9.35
2019-05-10T09:41:42.138Z,8.83
2019-05-10T09:44:13.479Z,10.72
2019-05-10T09:46:44.732Z,9.00
2019-05-10T09:49:18.526Z,9.23
2019-05-10T09:51:48.752Z,8.18
2019-05-10T09:54:23.155Z,10.50
2019-05-10T09:56:53.092Z,9.63
2019-05-10T09:59:24.149Z,10.13
2019-05-10T10:01:57.136Z,10.88
2019-05-10T10:04:28.421Z,11.15
2019-05-10T10:06:59.448Z,7.25
2019-05-10T10:09:37.359Z,8.20
2019-05-10T10:12:03.536Z,8.35
2019-05-10T10:14:39.335Z,13.20
2019-05-10T10:17:08.256Z,9.80
2019-05-10T10:19:40.709Z,8.80
2019-05-10T10:22:13.292Z,9.35
2019-05-10T10:24:48.911Z,12.07
2019-05-10T10:27:17.257Z,13.75
2019-05-10T10:29:48.370Z,13.83
2019-05-10T10:32:24.488Z,19.00
2019-05-10T10:34:54.743Z,14.73
2019-05-10T10:37:29.048Z,10.82
2019-05-10T10:40:02.393Z,12.25
2019-05-10T10:42:31.932Z,12.15
2019-05-10T10:45:03.234Z,11.88
2019-05-10T10:47:34.616Z,7.12
2019-05-10T10:50:13.212Z,8.70
2019-05-10T10:52:41.352Z,10.72
2019-05-10T10:55:13.601Z,15.48
2019-05-10T10:57:44.763Z,23.73
2019-05-10T11:00:23.163Z,16.23
2019-05-10T11:02:53.755Z,11.38
2019-05-10T11:05:24.991Z,14.47
2019-05-10T11:07:56.036Z,17.77
2019-05-10T11:10:32.282Z,10.45
2019-05-10T11:13:11.876Z,7.28
2019-05-10T11:15:36.668Z,7.72
2019-05-10T11:18:07.974Z,5.37
2019-05-10T11:20:41.931Z,4.97
2019-05-10T11:23:11.963Z,10.70
2019-05-10T11:25:54.754Z,16.37
2019-05-10T11:28:15.813Z,12.55
2019-05-10T11:30:46.835Z,8.73
2019-05-10T11:33:29.126Z,12.07
2019-05-10T11:35:51.507Z,13.55
2019-05-10T11:38:22.817Z,11.65
2019-05-10T11:40:54.084Z,15.45
2019-05-10T11:43:27.060Z,15.65
2019-05-10T11:45:58.457Z,16.70
2019-05-10T11:48:36.816Z,18.57
2019-05-10T11:51:05.621Z,19.95
2019-05-10T11:53:34.956Z,19.55
2019-05-10T11:58:49.076Z,9.38
2019-05-10T12:01:17.630Z,6.60
2019-05-10T12:03:44.746Z,7.90
2019-05-10T12:06:15.845Z,8.88
2019-05-10T12:08:47.095Z,5.80
2019-05-10T12:11:32.946Z,5.95
2019-05-10T12:13:57.496Z,6.03
2019-05-10T12:16:33.077Z,8.28
2019-05-10T12:19:13.073Z,8.33
2019-05-10T12:21:34.231Z,8.78
2019-05-10T12:24:19.834Z,7.45
2019-05-10T12:26:15.804Z,9.93
2019-05-10T12:29:16.981Z,8.05
2019-05-10T12:31:47.445Z,7.42
2019-05-10T12:34:18.146Z,6.08
2019-05-10T12:36:49.121Z,7.40
2019-05-10T12:39:21.445Z,4.20
2019-05-10T12:41:53.202Z,5.05
2019-05-10T12:44:24.461Z,6.87
2019-05-10T12:46:55.716Z,5.15
2019-05-10T12:49:27.269Z,4.00
2019-05-10T12:51:58.341Z,5.80
2019-05-10T12:54:31.640Z,7.55
2019-05-10T12:57:02.825Z,6.08
2019-05-10T12:59:35.137Z,7.40
2019-05-10T13:02:10.783Z,9.43
2019-05-10T13:04:41.201Z,9.63
2019-05-10T13:07:12.586Z,11.22
2019-05-10T13:09:43.875Z,13.90
2019-05-10T13:12:15.039Z,19.32
2019-05-10T13:14:52.254Z,16.02
2019-05-10T13:17:19.619Z,14.25
2019-05-10T13:19:52.652Z,9.55
2019-05-10T13:22:23.510Z,8.25
2019-05-10T13:24:54.958Z,8.93
2019-05-10T13:27:25.995Z,10.93
2019-05-10T13:29:57.151Z,12.82
2019-05-10T13:32:28.234Z,13.98
2019-05-10T13:34:59.840Z,18.40
2019-05-10T13:37:31.007Z,11.30
2019-05-10T13:40:05.668Z,9.50
2019-05-10T13:42:36.436Z,14.73
2019-05-10T13:45:08.390Z,17.00
2019-05-10T13:47:39.599Z,28.15
2019-05-10T13:50:11.359Z,22.75
2019-05-10T13:52:42.299Z,19.07
2019-05-10T13:55:13.932Z,14.75
2019-05-10T13:57:44.880Z,8.48
2019-05-10T14:00:16.748Z,6.85
2019-05-10T14:02:47.734Z,6.75
2019-05-10T14:05:19.994Z,8.85
2019-05-10T14:07:53.068Z,9.80
2019-05-10T14:10:25.385Z,11.40
2019-05-10T14:13:02.537Z,15.48
2019-05-10T14:15:29.904Z,20.62
2019-05-10T14:18:01.629Z,27.90
2019-05-10T14:20:32.924Z,34.03
2019-05-10T14:23:03.996Z,34.15
2019-05-10T14:25:38.716Z,33.23
2019-05-10T14:28:09.782Z,27.15
2019-05-10T14:30:40.812Z,27.13
2019-05-10T14:33:14.619Z,25.17
2019-05-10T14:35:44.793Z,23.38
2019-05-10T14:38:15.907Z,21.33
2019-05-10T14:40:47.107Z,22.87
2019-05-10T14:43:18.241Z,23.52
2019-05-10T14:45:49.176Z,27.40
2019-05-10T14:48:27.668Z,17.05
2019-05-10T14:50:53.115Z,14.38
2019-05-10T14:53:25.605Z,12.18
2019-05-10T14:55:57.633Z,11.12
2019-05-10T14:58:28.947Z,11.00
2019-05-10T15:01:00.328Z,15.53
2019-05-10T15:03:35.353Z,13.22
2019-05-10T15:06:04.746Z,18.65
2019-05-10T15:08:35.814Z,21.23
2019-05-10T15:11:07.112Z,23.85
2019-05-10T15:13:38.321Z,28.45
2019-05-10T15:16:12.762Z,35.28
2019-05-10T15:18:42.115Z,43.70
2019-05-10T15:21:13.195Z,37.42
2019-05-10T15:23:44.527Z,32.73
2019-05-10T15:26:15.946Z,28.00
2019-05-10T15:28:47.108Z,17.57
2019-05-10T15:31:18.221Z,26.82
2019-05-10T15:33:49.362Z,25.68
2019-05-10T15:36:23.752Z,28.92
2019-05-10T15:38:53.482Z,34.38
2019-05-10T15:41:24.738Z,24.70
2019-05-10T15:43:55.838Z,19.87
2019-05-10T15:46:36.218Z,17.30
2019-05-10T15:48:59.473Z,21.35
2019-05-10T15:54:04.814Z,16.23
2019-05-10T15:56:41.605Z,21.45
2019-05-10T15:59:12.957Z,22.73
2019-05-10T15:59:23.402Z,25.57
2019-05-10T16:01:45.205Z,28.47
2019-05-10T16:04:14.703Z,28.73
2019-05-10T16:06:45.961Z,30.10
2019-05-10T16:09:19.130Z,23.00
2019-05-10T16:11:49.810Z,20.62
2019-05-10T16:14:20.807Z,15.90
2019-05-10T16:16:51.815Z,11.40
2019-05-10T16:19:22.803Z,12.28
2019-05-10T16:21:54.361Z,10.18
2019-05-10T16:24:27.928Z,6.12
2019-05-10T16:27:00.021Z,12.30
2019-05-10T16:29:33.875Z,13.08
2019-05-10T16:32:05.002Z,13.93
2019-05-10T16:34:35.887Z,17.65
2019-05-10T16:37:06.919Z,26.30
2019-05-10T16:39:38.015Z,26.95
2019-05-10T16:42:09.108Z,21.37
2019-05-10T16:44:40.276Z,23.45
2019-05-10T16:47:11.537Z,21.75
2019-05-10T16:49:47.733Z,23.92
2019-05-10T16:52:19.638Z,22.82
2019-05-10T16:54:48.390Z,29.70
2019-05-10T16:57:19.716Z,33.33
2019-05-10T16:59:50.873Z,41.65
2019-05-10T17:02:22.085Z,58.63
2019-05-10T17:04:53.638Z,40.65
2019-05-10T17:07:24.984Z,26.70
2019-05-10T17:09:56.305Z,24.87
2019-05-10T17:12:29.233Z,41.02
2019-05-10T17:15:02.975Z,96.75
2019-05-10T17:17:37.322Z,83.42
2019-05-10T17:20:14.162Z,59.93
2019-05-10T17:22:42.968Z,43.87
2019-05-10T17:25:14.575Z,40.33
2019-05-10T17:27:50.697Z,51.75
2019-05-10T17:30:22.289Z,62.20
2019-05-10T17:32:51.719Z,48.80
2019-05-10T17:35:24.354Z,78.83
2019-05-10T17:37:55.552Z,67.12
2019-05-10T17:40:28.209Z,79.00
2019-05-10T17:42:59.501Z,95.05
2019-05-10T17:45:34.697Z,100.62
2019-05-10T17:48:08.277Z,114.22
2019-05-10T17:50:36.685Z,79.90
2019-05-10T17:53:07.855Z,72.10
2019-05-10T17:55:39.013Z,91.90
2019-05-10T17:58:09.999Z,85.30
2019-05-10T18:00:41.415Z,71.67
2019-05-10T18:03:12.621Z,69.82
2019-05-10T18:05:46.794Z,72.92
2019-05-10T18:08:16.379Z,72.65
2019-05-10T18:10:47.715Z,62.80
2019-05-10T18:13:19.000Z,47.08
2019-05-10T18:15:50.131Z,47.80
2019-05-10T18:18:21.240Z,44.30
2019-05-10T18:20:52.399Z,37.40
2019-05-10T18:23:23.551Z,38.67
2019-05-10T18:25:58.657Z,35.30
2019-05-10T18:28:27.373Z,46.00
2019-05-10T18:30:58.856Z,49.90
2019-05-10T18:33:30.415Z,51.15
2019-05-10T18:36:01.504Z,56.75
2019-05-10T18:38:37.219Z,56.37
2019-05-10T18:41:10.052Z,68.62
2019-05-10T18:43:40.805Z,55.85
2019-05-10T18:46:11.151Z,65.37
2019-05-10T18:48:42.230Z,58.90
2019-05-10T18:51:17.864Z,58.87
2019-05-10T18:53:46.837Z,67.15
2019-05-10T18:56:17.991Z,77.67
2019-05-10T18:58:49.161Z,59.85
2019-05-10T19:01:21.441Z,48.25
2019-05-10T19:03:52.530Z,40.92
2019-05-10T19:06:23.834Z,63.28
2019-05-10T19:08:55.046Z,54.63
2019-05-10T19:11:26.362Z,57.45
2019-05-10T19:13:57.411Z,81.02
2019-05-10T19:16:32.160Z,117.03
2019-05-10T19:19:03.423Z,101.78
2019-05-10T19:21:37.794Z,67.75
2019-05-10T19:24:07.273Z,49.10
2019-05-10T19:26:38.689Z,56.80
2019-05-10T19:29:09.890Z,50.73
2019-05-10T19:31:41.708Z,53.58
2019-05-10T19:34:15.277Z,49.03
2019-05-10T19:36:46.167Z,52.55
2019-05-10T19:39:17.289Z,72.80
2019-05-10T19:41:48.783Z,59.18
2019-05-10T19:44:19.866Z,101.35
2019-05-10T19:46:50.850Z,68.17
2019-05-10T19:49:22.062Z,56.70
2019-05-10T19:51:53.170Z,59.60
2019-05-10T19:54:24.240Z,47.23
2019-05-10T19:56:55.678Z,40.85
2019-05-10T19:59:27.039Z,32.53
2019-05-10T20:01:58.454Z,32.42
2019-05-10T20:04:30.030Z,38.70
2019-05-10T20:07:01.119Z,32.73
2019-05-10T20:09:32.445Z,34.43
2019-05-10T20:12:03.445Z,34.67
2019-05-10T20:14:34.620Z,41.48
2019-05-10T20:17:05.756Z,46.48
2019-05-10T20:19:37.028Z,48.28
2019-05-10T20:22:08.241Z,50.52
2019-05-10T20:24:39.339Z,52.58
2019-05-10T20:27:10.362Z,64.62
2019-05-10T20:29:42.916Z,54.40
2019-05-10T20:32:14.126Z,56.08
2019-05-10T20:34:46.246Z,51.18
2019-05-10T20:37:17.456Z,53.60
2019-05-10T20:39:48.712Z,71.97
2019-05-10T20:42:19.781Z,69.95
2019-05-10T20:45:06.103Z,72.70
2019-05-10T20:47:23.712Z,73.00
2019-05-10T20:49:55.388Z,74.82
2019-05-10T20:52:26.470Z,71.42
2019-05-10T20:54:57.586Z,78.35
2019-05-10T20:57:28.594Z,72.50
2019-05-10T20:59:59.614Z,74.92
2019-05-10T21:02:30.949Z,105.03
2019-05-10T21:05:02.279Z,87.40
2019-05-10T21:07:33.579Z,95.95
2019-05-10T21:10:05.802Z,92.02
2019-05-10T21:12:36.992Z,87.42
2019-05-10T21:15:09.357Z,73.52
2019-05-10T21:17:40.731Z,70.15
2019-05-10T21:20:12.608Z,77.17
2019-05-10T21:22:43.744Z,72.35
2019-05-10T21:25:15.206Z,76.40
2019-05-10T21:27:46.109Z,76.75
2019-05-10T21:30:17.535Z,84.80
2019-05-10T21:32:48.874Z,83.92
2019-05-10T21:35:20.192Z,77.17
2019-05-10T21:37:51.234Z,72.72
2019-05-10T21:40:22.346Z,69.75
2019-05-10T21:42:53.474Z,81.65
2019-05-10T21:45:24.627Z,85.07
2019-05-10T21:47:55.812Z,84.28
2019-05-10T21:50:27.039Z,85.38
2019-05-10T21:52:58.225Z,86.75
2019-05-10T21:55:29.320Z,86.75
2019-05-10T21:58:00.558Z,87.85
2019-05-10T22:00:42.375Z,79.70
2019-05-10T22:03:13.728Z,80.07
2019-05-10T22:05:45.109Z,82.85
2019-05-10T22:08:16.447Z,93.70
2019-05-10T22:10:47.562Z,86.57
2019-05-10T22:13:18.520Z,86.00
2019-05-10T22:15:49.732Z,81.05
2019-05-10T22:18:20.700Z,74.65
2019-05-10T22:20:51.741Z,79.03
2019-05-10T22:23:22.988Z,73.12
2019-05-10T22:25:54.211Z,75.03
2019-05-10T22:28:25.339Z,79.55
2019-05-10T22:30:56.490Z,90.38
2019-05-10T22:33:27.761Z,83.62
2019-05-10T22:35:58.913Z,93.37
2019-05-10T22:38:30.206Z,84.35
2019-05-10T22:41:01.179Z,90.38
2019-05-10T22:43:32.330Z,82.85
2019-05-10T22:46:03.358Z,86.28
2019-05-10T22:48:34.449Z,89.28
2019-05-10T22:51:05.741Z,95.35
2019-05-10T22:53:37.155Z,82.25
2019-05-10T22:56:08.277Z,77.12
2019-05-10T22:58:39.536Z,74.87
2019-05-10T23:01:10.635Z,68.70
2019-05-10T23:03:41.705Z,66.87
2019-05-10T23:06:13.264Z,60.95
2019-05-10T23:08:44.477Z,56.42
2019-05-10T23:11:15.405Z,62.95
2019-05-10T23:13:46.635Z,62.00
2019-05-10T23:16:17.983Z,61.23
2019-05-10T23:18:48.919Z,60.60
2019-05-10T23:21:19.905Z,59.08
2019-05-10T23:23:50.979Z,65.08
2019-05-10T23:26:22.027Z,68.17
2019-05-10T23:28:53.012Z,75.28
2019-05-10T23:31:24.290Z,72.40
2019-05-10T23:33:55.208Z,73.28
2019-05-10T23:36:26.493Z,76.07
2019-05-10T23:38:57.671Z,77.92
2019-05-10T23:41:28.896Z,88.87
2019-05-10T23:43:59.980Z,73.37
2019-05-10T23:46:31.051Z,65.95
2019-05-10T23:49:02.075Z,74.65
2019-05-10T23:51:33.089Z,74.70
2019-05-10T23:54:04.443Z,69.47
2019-05-10T23:56:35.510Z,61.23
2019-05-10T23:59:06.673Z,62.35
